sensor_id;sensor_type;location;lat;lon;timestamp;pressure;altitude;pressure_sealevel;temperature;humidity
66547;BME280;53400;50.364;14.874;2023-04-20T00:00:12;98863.78;;;3.58;88.14
66547;BME280;53400;50.364;14.874;2023-04-20T00:03:01;98864.03;;;3.63;87.66
66547;BME280;53400;50.364;14.874;2023-04-20T00:05:29;98859.13;;;3.60;87.09
66547;BME280;53400;50.364;14.874;2023-04-20T00:08:01;98863.97;;;3.50;87.93
66547;BME280;53400;50.364;14.874;2023-04-20T00:10:29;98850.41;;;3.32;88.31
66547;BME280;53400;50.364;14.874;2023-04-20T00:12:59;98863.50;;;3.18;88.78
66547;BME280;53400;50.364;14.874;2023-04-20T00:15:26;98853.59;;;3.27;87.79
66547;BME280;53400;50.364;14.874;2023-04-20T00:17:52;98850.41;;;3.10;88.60
66547;BME280;53400;50.364;14.874;2023-04-20T00:20:20;98850.94;;;2.99;88.56
66547;BME280;53400;50.364;14.874;2023-04-20T00:22:48;98844.38;;;2.95;89.14
66547;BME280;53400;50.364;14.874;2023-04-20T00:25:14;98856.41;;;2.76;89.12
66547;BME280;53400;50.364;14.874;2023-04-20T00:27:43;98841.28;;;2.91;89.83
66547;BME280;53400;50.364;14.874;2023-04-20T00:30:10;98849.63;;;3.16;88.11
66547;BME280;53400;50.364;14.874;2023-04-20T00:32:37;98847.75;;;3.10;87.85
66547;BME280;53400;50.364;14.874;2023-04-20T00:35:04;98849.00;;;3.36;87.07
66547;BME280;53400;50.364;14.874;2023-04-20T00:37:33;98849.66;;;3.44;87.07
66547;BME280;53400;50.364;14.874;2023-04-20T00:40:00;98851.09;;;3.19;89.02
66547;BME280;53400;50.364;14.874;2023-04-20T00:42:26;98848.34;;;3.06;91.73
66547;BME280;53400;50.364;14.874;2023-04-20T00:44:53;98847.44;;;3.48;88.05
66547;BME280;53400;50.364;14.874;2023-04-20T00:47:20;98846.72;;;3.61;87.55
66547;BME280;53400;50.364;14.874;2023-04-20T00:49:47;98854.25;;;3.64;87.20
66547;BME280;53400;50.364;14.874;2023-04-20T00:52:17;98842.19;;;3.55;87.77
66547;BME280;53400;50.364;14.874;2023-04-20T00:54:46;98847.28;;;3.28;89.13
66547;BME280;53400;50.364;14.874;2023-04-20T00:57:17;98840.25;;;3.35;88.75
66547;BME280;53400;50.364;14.874;2023-04-20T00:59:44;98843.88;;;3.34;89.15
66547;BME280;53400;50.364;14.874;2023-04-20T01:02:12;98844.41;;;3.23;89.31
66547;BME280;53400;50.364;14.874;2023-04-20T01:04:39;98839.09;;;2.95;91.22
66547;BME280;53400;50.364;14.874;2023-04-20T01:07:06;98836.72;;;2.79;91.88
66547;BME280;53400;50.364;14.874;2023-04-20T01:09:36;98835.47;;;2.53;93.85
66547;BME280;53400;50.364;14.874;2023-04-20T01:12:04;98840.22;;;2.43;94.59
66547;BME280;53400;50.364;14.874;2023-04-20T01:14:31;98836.97;;;2.41;95.31
66547;BME280;53400;50.364;14.874;2023-04-20T01:16:58;98834.22;;;2.34;96.32
66547;BME280;53400;50.364;14.874;2023-04-20T01:19:26;98839.63;;;2.26;97.60
66547;BME280;53400;50.364;14.874;2023-04-20T01:21:53;98829.44;;;2.23;98.16
66547;BME280;53400;50.364;14.874;2023-04-20T01:24:22;98833.25;;;2.20;99.04
66547;BME280;53400;50.364;14.874;2023-04-20T01:26:49;98825.22;;;2.28;99.56
66547;BME280;53400;50.364;14.874;2023-04-20T01:29:17;98828.34;;;2.17;100.00
66547;BME280;53400;50.364;14.874;2023-04-20T01:31:48;98813.31;;;2.18;99.85
66547;BME280;53400;50.364;14.874;2023-04-20T01:34:15;98825.88;;;2.16;100.00
66547;BME280;53400;50.364;14.874;2023-04-20T01:36:45;98822.19;;;2.10;98.26
66547;BME280;53400;50.364;14.874;2023-04-20T01:39:13;98828.56;;;2.01;98.38
66547;BME280;53400;50.364;14.874;2023-04-20T01:41:41;98813.91;;;1.98;97.73
66547;BME280;53400;50.364;14.874;2023-04-20T01:44:07;98816.50;;;1.77;97.79
66547;BME280;53400;50.364;14.874;2023-04-20T01:46:36;98817.09;;;1.79;97.88
66547;BME280;53400;50.364;14.874;2023-04-20T01:49:04;98805.28;;;1.75;98.49
66547;BME280;53400;50.364;14.874;2023-04-20T01:51:31;98812.47;;;1.81;98.49
66547;BME280;53400;50.364;14.874;2023-04-20T01:53:59;98800.38;;;1.72;99.03
66547;BME280;53400;50.364;14.874;2023-04-20T01:56:26;98804.84;;;1.71;100.00
66547;BME280;53400;50.364;14.874;2023-04-20T01:58:54;98805.94;;;1.77;100.00
66547;BME280;53400;50.364;14.874;2023-04-20T02:01:21;98807.25;;;1.88;100.00
66547;BME280;53400;50.364;14.874;2023-04-20T02:03:49;98805.56;;;1.80;100.00
66547;BME280;53400;50.364;14.874;2023-04-20T02:06:17;98806.09;;;1.75;100.00
66547;BME280;53400;50.364;14.874;2023-04-20T02:08:43;98808.47;;;1.70;100.00
66547;BME280;53400;50.364;14.874;2023-04-20T02:11:10;98809.47;;;1.69;100.00
66547;BME280;53400;50.364;14.874;2023-04-20T02:13:36;98815.31;;;1.65;100.00
66547;BME280;53400;50.364;14.874;2023-04-20T02:16:05;98804.75;;;1.65;100.00
66547;BME280;53400;50.364;14.874;2023-04-20T02:18:31;98808.81;;;1.82;99.71
66547;BME280;53400;50.364;14.874;2023-04-20T02:20:59;98805.63;;;1.87;98.91
66547;BME280;53400;50.364;14.874;2023-04-20T02:23:25;98805.38;;;1.67;98.86
66547;BME280;53400;50.364;14.874;2023-04-20T02:25:53;98799.47;;;1.50;99.65
66547;BME280;53400;50.364;14.874;2023-04-20T02:28:20;98816.66;;;1.60;98.89
66547;BME280;53400;50.364;14.874;2023-04-20T02:30:48;98815.41;;;1.56;97.48
66547;BME280;53400;50.364;14.874;2023-04-20T02:33:15;98819.13;;;1.62;98.06
66547;BME280;53400;50.364;14.874;2023-04-20T02:35:43;98819.88;;;1.71;97.10
66547;BME280;53400;50.364;14.874;2023-04-20T02:38:11;98826.13;;;1.70;96.95
66547;BME280;53400;50.364;14.874;2023-04-20T02:40:40;98820.75;;;1.63;96.78
66547;BME280;53400;50.364;14.874;2023-04-20T02:43:06;98816.56;;;1.69;96.43
66547;BME280;53400;50.364;14.874;2023-04-20T02:45:33;98820.22;;;1.68;97.15
66547;BME280;53400;50.364;14.874;2023-04-20T02:47:59;98817.84;;;1.73;96.72
66547;BME280;53400;50.364;14.874;2023-04-20T02:50:27;98815.75;;;1.83;96.09
66547;BME280;53400;50.364;14.874;2023-04-20T02:52:54;98817.66;;;1.89;94.59
66547;BME280;53400;50.364;14.874;2023-04-20T02:55:20;98827.94;;;1.99;94.50
66547;BME280;53400;50.364;14.874;2023-04-20T02:57:47;98819.81;;;1.86;94.39
66547;BME280;53400;50.364;14.874;2023-04-20T03:00:15;98814.81;;;1.91;96.08
66547;BME280;53400;50.364;14.874;2023-04-20T03:02:42;98809.97;;;1.94;95.00
66547;BME280;53400;50.364;14.874;2023-04-20T03:05:10;98814.16;;;1.89;94.87
66547;BME280;53400;50.364;14.874;2023-04-20T03:07:38;98811.28;;;1.69;95.70
66547;BME280;53400;50.364;14.874;2023-04-20T03:10:07;98820.94;;;1.76;95.94
66547;BME280;53400;50.364;14.874;2023-04-20T03:12:34;98817.03;;;1.57;97.12
66547;BME280;53400;50.364;14.874;2023-04-20T03:15:02;98827.41;;;1.44;97.64
66547;BME280;53400;50.364;14.874;2023-04-20T03:17:30;98831.59;;;1.38;98.25
66547;BME280;53400;50.364;14.874;2023-04-20T03:19:56;98825.19;;;1.33;98.53
66547;BME280;53400;50.364;14.874;2023-04-20T03:22:22;98815.09;;;1.22;99.53
66547;BME280;53400;50.364;14.874;2023-04-20T03:24:50;98822.44;;;1.11;100.00
66547;BME280;53400;50.364;14.874;2023-04-20T03:27:17;98830.31;;;0.97;100.00
66547;BME280;53400;50.364;14.874;2023-04-20T03:29:44;98826.13;;;0.87;100.00
66547;BME280;53400;50.364;14.874;2023-04-20T03:32:14;98827.28;;;0.85;100.00
66547;BME280;53400;50.364;14.874;2023-04-20T03:34:41;98811.03;;;0.96;100.00
66547;BME280;53400;50.364;14.874;2023-04-20T03:37:08;98826.22;;;0.94;100.00
66547;BME280;53400;50.364;14.874;2023-04-20T03:39:34;98822.91;;;1.15;100.00
66547;BME280;53400;50.364;14.874;2023-04-20T03:42:02;98819.34;;;1.08;100.00
66547;BME280;53400;50.364;14.874;2023-04-20T03:44:30;98811.53;;;1.14;100.00
66547;BME280;53400;50.364;14.874;2023-04-20T03:46:57;98816.66;;;1.16;100.00
66547;BME280;53400;50.364;14.874;2023-04-20T03:49:29;98817.56;;;1.23;100.00
66547;BME280;53400;50.364;14.874;2023-04-20T03:51:57;98816.41;;;1.41;100.00
66547;BME280;53400;50.364;14.874;2023-04-20T03:54:24;98806.94;;;1.46;99.56
66547;BME280;53400;50.364;14.874;2023-04-20T03:56:51;98808.56;;;1.32;100.00
66547;BME280;53400;50.364;14.874;2023-04-20T03:59:20;98816.50;;;1.47;99.65
66547;BME280;53400;50.364;14.874;2023-04-20T04:01:47;98814.00;;;1.46;99.33
66547;BME280;53400;50.364;14.874;2023-04-20T04:04:16;98812.72;;;1.27;100.00
66547;BME280;53400;50.364;14.874;2023-04-20T04:06:42;98812.22;;;1.31;100.00
66547;BME280;53400;50.364;14.874;2023-04-20T04:09:10;98819.91;;;1.18;100.00
66547;BME280;53400;50.364;14.874;2023-04-20T04:11:37;98815.94;;;1.22;100.00
66547;BME280;53400;50.364;14.874;2023-04-20T04:14:04;98820.34;;;1.22;100.00
66547;BME280;53400;50.364;14.874;2023-04-20T04:16:31;98811.84;;;1.34;100.00
66547;BME280;53400;50.364;14.874;2023-04-20T04:18:58;98823.00;;;1.22;99.94
66547;BME280;53400;50.364;14.874;2023-04-20T04:21:25;98832.41;;;1.39;99.76
66547;BME280;53400;50.364;14.874;2023-04-20T04:23:53;98832.41;;;1.39;99.02
66547;BME280;53400;50.364;14.874;2023-04-20T04:26:19;98827.03;;;1.47;98.75
66547;BME280;53400;50.364;14.874;2023-04-20T04:28:50;98819.78;;;1.49;98.82
66547;BME280;53400;50.364;14.874;2023-04-20T04:31:17;98819.19;;;1.39;99.74
66547;BME280;53400;50.364;14.874;2023-04-20T04:33:48;98813.09;;;1.38;99.16
66547;BME280;53400;50.364;14.874;2023-04-20T04:36:14;98810.41;;;1.47;99.25
66547;BME280;53400;50.364;14.874;2023-04-20T04:38:42;98803.47;;;1.31;99.75
66547;BME280;53400;50.364;14.874;2023-04-20T04:41:11;98807.91;;;1.30;100.00
66547;BME280;53400;50.364;14.874;2023-04-20T04:43:38;98822.94;;;1.45;100.00
66547;BME280;53400;50.364;14.874;2023-04-20T04:46:05;98819.50;;;1.44;100.00
66547;BME280;53400;50.364;14.874;2023-04-20T04:48:35;98820.47;;;1.58;99.90
66547;BME280;53400;50.364;14.874;2023-04-20T04:51:05;98808.28;;;1.57;99.29
66547;BME280;53400;50.364;14.874;2023-04-20T04:53:32;98818.03;;;1.56;99.48
66547;BME280;53400;50.364;14.874;2023-04-20T04:55:58;98818.75;;;1.50;99.46
66547;BME280;53400;50.364;14.874;2023-04-20T04:58:31;98816.13;;;1.35;100.00
66547;BME280;53400;50.364;14.874;2023-04-20T05:01:01;98818.75;;;1.35;100.00
66547;BME280;53400;50.364;14.874;2023-04-20T05:03:28;98819.19;;;1.39;100.00
66547;BME280;53400;50.364;14.874;2023-04-20T05:05:55;98823.75;;;1.45;100.00
66547;BME280;53400;50.364;14.874;2023-04-20T05:08:24;98829.84;;;1.75;100.00
66547;BME280;53400;50.364;14.874;2023-04-20T05:10:50;98832.06;;;1.57;100.00
66547;BME280;53400;50.364;14.874;2023-04-20T05:13:17;98835.66;;;1.86;99.78
66547;BME280;53400;50.364;14.874;2023-04-20T05:15:44;98840.88;;;1.94;98.69
66547;BME280;53400;50.364;14.874;2023-04-20T05:18:11;98840.13;;;1.85;98.62
66547;BME280;53400;50.364;14.874;2023-04-20T05:20:38;98844.97;;;1.81;99.38
66547;BME280;53400;50.364;14.874;2023-04-20T05:23:06;98841.59;;;1.73;100.00
66547;BME280;53400;50.364;14.874;2023-04-20T05:25:34;98843.63;;;1.71;100.00
66547;BME280;53400;50.364;14.874;2023-04-20T05:28:01;98837.03;;;1.96;100.00
66547;BME280;53400;50.364;14.874;2023-04-20T05:30:27;98851.13;;;2.03;98.91
66547;BME280;53400;50.364;14.874;2023-04-20T05:32:54;98860.03;;;2.32;97.84
66547;BME280;53400;50.364;14.874;2023-04-20T05:35:20;98853.16;;;2.16;97.10
66547;BME280;53400;50.364;14.874;2023-04-20T05:37:47;98860.47;;;2.36;97.43
66547;BME280;53400;50.364;14.874;2023-04-20T05:40:14;98864.97;;;2.57;96.71
66547;BME280;53400;50.364;14.874;2023-04-20T05:42:45;98879.13;;;2.49;96.51
66547;BME280;53400;50.364;14.874;2023-04-20T05:45:12;98877.56;;;2.55;95.57
66547;BME280;53400;50.364;14.874;2023-04-20T05:47:38;98867.22;;;2.38;96.51
66547;BME280;53400;50.364;14.874;2023-04-20T05:50:06;98868.47;;;2.42;97.36
66547;BME280;53400;50.364;14.874;2023-04-20T05:52:36;98865.13;;;2.34;98.24
66547;BME280;53400;50.364;14.874;2023-04-20T05:55:04;98867.94;;;2.47;97.48
66547;BME280;53400;50.364;14.874;2023-04-20T05:57:30;98866.44;;;2.23;97.13
66547;BME280;53400;50.364;14.874;2023-04-20T05:59:58;98861.91;;;2.53;96.78
66547;BME280;53400;50.364;14.874;2023-04-20T06:02:25;98862.50;;;2.55;96.12
66547;BME280;53400;50.364;14.874;2023-04-20T06:04:51;98867.31;;;2.66;96.46
66547;BME280;53400;50.364;14.874;2023-04-20T06:07:18;98863.53;;;2.75;96.08
66547;BME280;53400;50.364;14.874;2023-04-20T06:09:45;98863.59;;;2.82;95.47
66547;BME280;53400;50.364;14.874;2023-04-20T06:12:12;98868.19;;;2.95;94.37
66547;BME280;53400;50.364;14.874;2023-04-20T06:14:38;98865.03;;;3.06;94.00
66547;BME280;53400;50.364;14.874;2023-04-20T06:17:07;98867.44;;;3.01;93.56
66547;BME280;53400;50.364;14.874;2023-04-20T06:19:33;98859.97;;;2.83;94.49
66547;BME280;53400;50.364;14.874;2023-04-20T06:22:04;98856.94;;;2.86;93.52
66547;BME280;53400;50.364;14.874;2023-04-20T06:24:31;98863.28;;;2.70;94.98
66547;BME280;53400;50.364;14.874;2023-04-20T06:26:58;98870.25;;;2.57;95.13
66547;BME280;53400;50.364;14.874;2023-04-20T06:29:25;98871.84;;;2.72;95.29
66547;BME280;53400;50.364;14.874;2023-04-20T06:31:52;98876.28;;;2.87;94.34
66547;BME280;53400;50.364;14.874;2023-04-20T06:34:20;98874.88;;;2.91;94.49
66547;BME280;53400;50.364;14.874;2023-04-20T06:36:49;98874.56;;;3.01;95.42
66547;BME280;53400;50.364;14.874;2023-04-20T06:39:15;98878.47;;;3.05;95.03
66547;BME280;53400;50.364;14.874;2023-04-20T06:41:43;98877.88;;;3.09;95.32
66547;BME280;53400;50.364;14.874;2023-04-20T06:44:09;98876.56;;;3.20;95.31
66547;BME280;53400;50.364;14.874;2023-04-20T06:46:35;98880.25;;;3.26;95.21
66547;BME280;53400;50.364;14.874;2023-04-20T06:49:02;98873.72;;;3.21;95.58
66547;BME280;53400;50.364;14.874;2023-04-20T06:51:30;98866.66;;;3.07;96.77
66547;BME280;53400;50.364;14.874;2023-04-20T06:53:58;98866.91;;;3.12;98.57
66547;BME280;53400;50.364;14.874;2023-04-20T06:56:27;98863.09;;;3.15;99.44
66547;BME280;53400;50.364;14.874;2023-04-20T06:58:54;98854.47;;;3.34;99.23
66547;BME280;53400;50.364;14.874;2023-04-20T07:01:20;98844.50;;;3.08;100.00
66547;BME280;53400;50.364;14.874;2023-04-20T07:03:47;98856.22;;;2.99;100.00
66547;BME280;53400;50.364;14.874;2023-04-20T07:06:15;98865.09;;;3.13;100.00
66547;BME280;53400;50.364;14.874;2023-04-20T07:08:46;98860.94;;;3.04;100.00
66547;BME280;53400;50.364;14.874;2023-04-20T07:11:22;98862.19;;;3.29;100.00
66547;BME280;53400;50.364;14.874;2023-04-20T07:13:48;98855.03;;;3.02;100.00
66547;BME280;53400;50.364;14.874;2023-04-20T07:16:16;98866.88;;;3.06;100.00
66547;BME280;53400;50.364;14.874;2023-04-20T07:18:42;98863.63;;;3.10;100.00
66547;BME280;53400;50.364;14.874;2023-04-20T07:21:11;98861.84;;;3.39;100.00
66547;BME280;53400;50.364;14.874;2023-04-20T07:23:37;98858.41;;;3.45;100.00
66547;BME280;53400;50.364;14.874;2023-04-20T07:26:05;98855.03;;;3.58;100.00
66547;BME280;53400;50.364;14.874;2023-04-20T07:28:32;98861.88;;;3.45;100.00
66547;BME280;53400;50.364;14.874;2023-04-20T07:30:58;98860.16;;;3.59;100.00
66547;BME280;53400;50.364;14.874;2023-04-20T07:33:25;98865.59;;;3.51;100.00
66547;BME280;53400;50.364;14.874;2023-04-20T07:35:53;98866.41;;;3.52;100.00
66547;BME280;53400;50.364;14.874;2023-04-20T07:38:20;98865.78;;;3.50;100.00
66547;BME280;53400;50.364;14.874;2023-04-20T07:40:47;98861.72;;;3.47;100.00
66547;BME280;53400;50.364;14.874;2023-04-20T07:43:15;98874.94;;;3.47;100.00
66547;BME280;53400;50.364;14.874;2023-04-20T07:45:42;98877.59;;;3.47;100.00
66547;BME280;53400;50.364;14.874;2023-04-20T07:48:09;98871.94;;;3.57;100.00
66547;BME280;53400;50.364;14.874;2023-04-20T07:50:37;98872.47;;;3.80;100.00
66547;BME280;53400;50.364;14.874;2023-04-20T07:53:04;98879.06;;;3.84;100.00
66547;BME280;53400;50.364;14.874;2023-04-20T07:55:31;98879.00;;;3.78;100.00
66547;BME280;53400;50.364;14.874;2023-04-20T07:57:58;98873.44;;;4.07;100.00
66547;BME280;53400;50.364;14.874;2023-04-20T08:00:28;98871.13;;;3.91;100.00
66547;BME280;53400;50.364;14.874;2023-04-20T08:02:54;98873.84;;;4.04;100.00
66547;BME280;53400;50.364;14.874;2023-04-20T08:05:24;98871.63;;;4.08;100.00
66547;BME280;53400;50.364;14.874;2023-04-20T08:07:51;98863.91;;;4.20;100.00
66547;BME280;53400;50.364;14.874;2023-04-20T08:10:19;98875.81;;;4.30;100.00
66547;BME280;53400;50.364;14.874;2023-04-20T08:12:45;98871.16;;;4.39;100.00
66547;BME280;53400;50.364;14.874;2023-04-20T08:15:12;98870.63;;;4.09;100.00
66547;BME280;53400;50.364;14.874;2023-04-20T08:17:41;98860.31;;;4.41;100.00
66547;BME280;53400;50.364;14.874;2023-04-20T08:20:08;98865.47;;;4.55;100.00
66547;BME280;53400;50.364;14.874;2023-04-20T08:22:35;98852.03;;;4.57;100.00
66547;BME280;53400;50.364;14.874;2023-04-20T08:25:03;98854.50;;;4.78;100.00
66547;BME280;53400;50.364;14.874;2023-04-20T08:27:30;98853.31;;;4.81;100.00
66547;BME280;53400;50.364;14.874;2023-04-20T08:29:57;98855.75;;;4.82;100.00
66547;BME280;53400;50.364;14.874;2023-04-20T08:32:24;98849.22;;;4.72;100.00
66547;BME280;53400;50.364;14.874;2023-04-20T08:34:53;98850.22;;;4.77;100.00
66547;BME280;53400;50.364;14.874;2023-04-20T08:37:19;98848.81;;;4.75;100.00
66547;BME280;53400;50.364;14.874;2023-04-20T08:39:49;98844.09;;;4.77;100.00
66547;BME280;53400;50.364;14.874;2023-04-20T08:42:15;98830.84;;;4.90;100.00
66547;BME280;53400;50.364;14.874;2023-04-20T08:44:42;98836.34;;;5.02;100.00
66547;BME280;53400;50.364;14.874;2023-04-20T08:47:09;98843.53;;;5.15;100.00
66547;BME280;53400;50.364;14.874;2023-04-20T08:49:37;98843.72;;;5.26;100.00
66547;BME280;53400;50.364;14.874;2023-04-20T08:52:05;98841.88;;;5.20;100.00
66547;BME280;53400;50.364;14.874;2023-04-20T08:54:36;98845.56;;;5.13;100.00
66547;BME280;53400;50.364;14.874;2023-04-20T08:57:04;98848.63;;;5.29;100.00
66547;BME280;53400;50.364;14.874;2023-04-20T08:59:31;98846.34;;;5.53;100.00
66547;BME280;53400;50.364;14.874;2023-04-20T09:02:07;98851.81;;;5.71;100.00
66547;BME280;53400;50.364;14.874;2023-04-20T09:04:36;98856.13;;;5.66;100.00
66547;BME280;53400;50.364;14.874;2023-04-20T09:07:05;98838.91;;;5.88;100.00
66547;BME280;53400;50.364;14.874;2023-04-20T09:09:31;98846.50;;;5.78;100.00
66547;BME280;53400;50.364;14.874;2023-04-20T09:11:59;98849.56;;;5.88;99.63
66547;BME280;53400;50.364;14.874;2023-04-20T09:14:40;98837.47;;;6.06;100.00
66547;BME280;53400;50.364;14.874;2023-04-20T09:17:06;98844.78;;;6.17;99.25
66547;BME280;53400;50.364;14.874;2023-04-20T09:19:33;98839.19;;;6.32;100.00
66547;BME280;53400;50.364;14.874;2023-04-20T09:22:00;98842.06;;;6.69;100.00
66547;BME280;53400;50.364;14.874;2023-04-20T09:24:31;98837.94;;;6.73;99.32
66547;BME280;53400;50.364;14.874;2023-04-20T09:26:58;98848.41;;;6.99;100.00
66547;BME280;53400;50.364;14.874;2023-04-20T09:29:26;98843.84;;;7.31;98.86
66547;BME280;53400;50.364;14.874;2023-04-20T09:31:52;98843.41;;;7.34;97.48
66547;BME280;53400;50.364;14.874;2023-04-20T09:34:19;98839.22;;;7.45;95.31
66547;BME280;53400;50.364;14.874;2023-04-20T09:36:48;98834.94;;;7.63;95.35
66547;BME280;53400;50.364;14.874;2023-04-20T09:39:19;98839.34;;;7.32;95.77
66547;BME280;53400;50.364;14.874;2023-04-20T09:41:47;98827.31;;;7.48;96.52
66547;BME280;53400;50.364;14.874;2023-04-20T09:44:17;98832.91;;;8.01;95.46
66547;BME280;53400;50.364;14.874;2023-04-20T09:46:44;98824.56;;;8.46;92.17
66547;BME280;53400;50.364;14.874;2023-04-20T09:49:12;98826.09;;;8.96;91.03
66547;BME280;53400;50.364;14.874;2023-04-20T09:51:40;98824.41;;;9.13;89.80
66547;BME280;53400;50.364;14.874;2023-04-20T09:54:07;98826.38;;;9.30;86.83
66547;BME280;53400;50.364;14.874;2023-04-20T09:56:34;98825.47;;;9.71;87.38
66547;BME280;53400;50.364;14.874;2023-04-20T09:59:03;98823.13;;;9.28;88.65
66547;BME280;53400;50.364;14.874;2023-04-20T10:01:31;98823.00;;;9.46;86.85
66547;BME280;53400;50.364;14.874;2023-04-20T10:04:01;98824.88;;;9.46;85.89
66547;BME280;53400;50.364;14.874;2023-04-20T10:06:29;98817.91;;;9.45;85.68
66547;BME280;53400;50.364;14.874;2023-04-20T10:08:59;98823.72;;;9.30;85.96
66547;BME280;53400;50.364;14.874;2023-04-20T10:11:28;98824.94;;;8.92;87.63
66547;BME280;53400;50.364;14.874;2023-04-20T10:13:57;98817.22;;;9.26;89.62
66547;BME280;53400;50.364;14.874;2023-04-20T10:16:25;98813.03;;;9.65;87.39
66547;BME280;53400;50.364;14.874;2023-04-20T10:18:58;98815.91;;;9.63;89.09
66547;BME280;53400;50.364;14.874;2023-04-20T10:21:25;98811.50;;;9.81;90.12
66547;BME280;53400;50.364;14.874;2023-04-20T10:23:54;98811.84;;;9.73;87.62
66547;BME280;53400;50.364;14.874;2023-04-20T10:26:21;98814.13;;;10.04;88.21
66547;BME280;53400;50.364;14.874;2023-04-20T10:28:51;98810.81;;;9.38;88.22
66547;BME280;53400;50.364;14.874;2023-04-20T10:31:17;98799.91;;;10.04;87.11
66547;BME280;53400;50.364;14.874;2023-04-20T10:33:56;98797.63;;;10.36;86.91
66547;BME280;53400;50.364;14.874;2023-04-20T10:36:27;98798.22;;;9.86;84.75
66547;BME280;53400;50.364;14.874;2023-04-20T10:38:54;98787.56;;;10.72;85.60
66547;BME280;53400;50.364;14.874;2023-04-20T10:41:20;98786.88;;;10.93;82.75
66547;BME280;53400;50.364;14.874;2023-04-20T10:43:49;98792.53;;;10.80;87.58
66547;BME280;53400;50.364;14.874;2023-04-20T10:46:16;98784.75;;;11.12;82.99
66547;BME280;53400;50.364;14.874;2023-04-20T10:48:51;98793.81;;;11.28;82.84
66547;BME280;53400;50.364;14.874;2023-04-20T10:51:19;98790.56;;;11.43;83.29
66547;BME280;53400;50.364;14.874;2023-04-20T10:53:46;98789.91;;;11.91;80.21
66547;BME280;53400;50.364;14.874;2023-04-20T10:56:22;98777.38;;;11.58;80.44
66547;BME280;53400;50.364;14.874;2023-04-20T10:58:49;98772.66;;;10.93;83.23
66547;BME280;53400;50.364;14.874;2023-04-20T11:01:19;98771.78;;;11.60;84.24
66547;BME280;53400;50.364;14.874;2023-04-20T11:03:49;98767.47;;;12.25;79.84
66547;BME280;53400;50.364;14.874;2023-04-20T11:06:21;98771.72;;;11.38;83.28
66547;BME280;53400;50.364;14.874;2023-04-20T11:08:48;98762.34;;;11.79;82.12
66547;BME280;53400;50.364;14.874;2023-04-20T11:11:18;98767.84;;;12.33;80.78
66547;BME280;53400;50.364;14.874;2023-04-20T11:13:44;98760.84;;;11.66;81.25
66547;BME280;53400;50.364;14.874;2023-04-20T11:16:12;98755.13;;;11.80;78.98
66547;BME280;53400;50.364;14.874;2023-04-20T11:18:48;98753.00;;;11.82;81.34
66547;BME280;53400;50.364;14.874;2023-04-20T11:21:16;98750.41;;;11.87;82.05
66547;BME280;53400;50.364;14.874;2023-04-20T11:23:44;98752.28;;;11.86;79.21
66547;BME280;53400;50.364;14.874;2023-04-20T11:26:10;98748.28;;;11.89;79.04
66547;BME280;53400;50.364;14.874;2023-04-20T11:28:48;98746.75;;;12.20;79.51
66547;BME280;53400;50.364;14.874;2023-04-20T11:31:15;98744.47;;;12.93;77.44
66547;BME280;53400;50.364;14.874;2023-04-20T11:33:44;98738.50;;;12.54;77.81
66547;BME280;53400;50.364;14.874;2023-04-20T11:36:17;98732.94;;;12.60;77.51
66547;BME280;53400;50.364;14.874;2023-04-20T11:38:47;98729.03;;;12.19;80.19
66547;BME280;53400;50.364;14.874;2023-04-20T11:41:13;98716.09;;;12.16;76.84
66547;BME280;53400;50.364;14.874;2023-04-20T11:43:40;98719.81;;;11.66;79.18
66547;BME280;53400;50.364;14.874;2023-04-20T11:46:15;98719.03;;;11.87;78.31
66547;BME280;53400;50.364;14.874;2023-04-20T11:48:43;98732.84;;;11.79;76.38
66547;BME280;53400;50.364;14.874;2023-04-20T11:51:10;98714.63;;;11.81;75.60
66547;BME280;53400;50.364;14.874;2023-04-20T11:53:36;98722.25;;;11.89;76.29
66547;BME280;53400;50.364;14.874;2023-04-20T11:56:07;98714.78;;;11.75;75.71
66547;BME280;53400;50.364;14.874;2023-04-20T11:58:35;98717.53;;;11.97;76.67
66547;BME280;53400;50.364;14.874;2023-04-20T12:01:03;98722.06;;;12.23;76.80
66547;BME280;53400;50.364;14.874;2023-04-20T12:03:30;98718.88;;;12.26;73.72
66547;BME280;53400;50.364;14.874;2023-04-20T12:05:57;98712.84;;;12.41;75.47
66547;BME280;53400;50.364;14.874;2023-04-20T12:08:23;98715.16;;;12.92;75.15
66547;BME280;53400;50.364;14.874;2023-04-20T12:10:54;98716.03;;;12.65;73.08
66547;BME280;53400;50.364;14.874;2023-04-20T12:13:25;98704.66;;;12.90;72.24
66547;BME280;53400;50.364;14.874;2023-04-20T12:15:51;98701.66;;;12.81;72.96
66547;BME280;53400;50.364;14.874;2023-04-20T12:18:17;98711.47;;;12.66;73.94
66547;BME280;53400;50.364;14.874;2023-04-20T12:20:44;98711.78;;;13.06;74.87
66547;BME280;53400;50.364;14.874;2023-04-20T12:23:12;98702.66;;;13.55;73.66
66547;BME280;53400;50.364;14.874;2023-04-20T12:25:38;98696.78;;;13.63;72.60
66547;BME280;53400;50.364;14.874;2023-04-20T12:28:06;98698.44;;;13.74;70.70
66547;BME280;53400;50.364;14.874;2023-04-20T12:30:36;98695.38;;;13.45;70.98
66547;BME280;53400;50.364;14.874;2023-04-20T12:33:04;98692.59;;;13.30;70.77
66547;BME280;53400;50.364;14.874;2023-04-20T12:35:32;98701.81;;;13.07;71.32
66547;BME280;53400;50.364;14.874;2023-04-20T12:38:03;98691.69;;;13.19;71.69
66547;BME280;53400;50.364;14.874;2023-04-20T12:40:30;98680.53;;;13.38;70.55
66547;BME280;53400;50.364;14.874;2023-04-20T12:42:56;98682.66;;;13.30;72.02
66547;BME280;53400;50.364;14.874;2023-04-20T12:45:23;98675.09;;;13.27;73.13
66547;BME280;53400;50.364;14.874;2023-04-20T12:47:51;98685.41;;;13.46;71.12
66547;BME280;53400;50.364;14.874;2023-04-20T12:50:18;98684.81;;;13.39;70.98
66547;BME280;53400;50.364;14.874;2023-04-20T12:52:45;98692.38;;;13.37;72.00
66547;BME280;53400;50.364;14.874;2023-04-20T12:55:11;98676.50;;;13.40;72.03
66547;BME280;53400;50.364;14.874;2023-04-20T12:57:41;98675.25;;;13.63;71.43